Terminal Aerodrome Forecast
Issued by NWS

Home | Current Version | Previous Version | Text Only | Print | Product List | Glossary On
Versions: 1 2 3 4 5 6 7 8 9 10 11 12 13 14
000
FTUS46 KLOX 281127
TAFSBA
TAF
KSBA 281127Z 2812/2912 VRB03KT P6SM SKC
     FM281800 17006KT P6SM SKC
     FM282100 24006KT P6SM SKC
     FM290300 VRB03KT P6SM SKC WS010/34025KT
     FM291100 VRB03KT P6SM SKC=

USA.gov is the U.S. government's official web portal to all federal, state and local government web resources and services.